Time;durP1;ratioP1;P1;durP2;ratioP2;P2;SDS_P1;SDS_P2;PMS_P1;PMS_P2;Temp;Humidity;BMP_temperature;BMP_pressure;BME280_temperature;BME280_humidity;BME280_pressure;Samples;Min_cycle;Max_cycle;Signal;HPM_P1;HPM_P2
2023/07/05 00:02:01;;;;;;;7.90;4.10;;;;;;;16.34;100.00;100059.06;6122718;29;20790;-92
2023/07/05 00:05:04;;;;;;;7.57;3.83;;;;;;;16.32;100.00;100061.00;6130671;28;20047;-92
2023/07/05 00:08:06;;;;;;;5.85;4.18;;;;;;;16.24;100.00;100059.25;6137718;28;20149;-92
2023/07/05 00:11:10;;;;;;;9.65;4.45;;;;;;;16.21;100.00;100049.16;6143155;28;20047;-92
2023/07/05 00:14:13;;;;;;;6.63;4.00;;;;;;;16.20;100.00;100038.88;6144282;28;20126;-92
2023/07/05 00:17:14;;;;;;;6.38;4.53;;;;;;;16.23;100.00;100034.13;6141254;28;20515;-92
2023/07/05 00:20:16;;;;;;;9.23;4.43;;;;;;;16.31;100.00;100034.09;6123060;28;20084;-92
2023/07/05 00:23:18;;;;;;;6.20;3.90;;;;;;;16.26;100.00;100022.53;6140168;28;20035;-92
2023/07/05 00:26:20;;;;;;;6.47;4.25;;;;;;;16.30;100.00;100016.81;6122164;28;20916;-93
2023/07/05 00:29:22;;;;;;;6.93;4.45;;;;;;;16.27;100.00;100019.75;6137552;28;20086;-92
2023/07/05 00:32:23;;;;;;;7.75;4.00;;;;;;;16.25;100.00;100018.31;6137556;28;20513;-92
2023/07/05 00:35:25;;;;;;;9.70;4.43;;;;;;;16.25;100.00;100013.88;6141406;28;20038;-92
2023/07/05 00:38:27;;;;;;;10.63;4.70;;;;;;;16.23;100.00;100009.81;6138987;28;20145;-93
2023/07/05 00:41:29;;;;;;;8.00;3.95;;;;;;;16.24;100.00;100001.81;6142330;28;20043;-92
2023/07/05 00:44:32;;;;;;;7.30;4.25;;;;;;;16.21;100.00;99996.13;6121358;28;20043;-92
2023/07/05 00:47:35;;;;;;;6.03;4.22;;;;;;;16.14;100.00;99991.56;6137025;28;20059;-92
2023/07/05 00:50:41;;;;;;;7.60;4.20;;;;;;;15.98;100.00;99983.00;6138465;28;20039;-93
2023/07/05 00:53:44;;;;;;;6.10;4.63;;;;;;;15.86;100.00;99972.13;6144570;28;20524;-93
2023/07/05 00:56:56;;;;;;;8.68;5.07;;;;;;;15.76;100.00;99963.69;6141898;28;20090;-94
2023/07/05 01:00:03;;;;;;;12.27;5.05;;;;;;;15.70;100.00;99952.94;6138985;28;20514;-94
2023/07/05 01:03:10;;;;;;;10.05;5.00;;;;;;;15.67;100.00;99958.44;6146510;28;20611;-92
2023/07/05 01:06:14;;;;;;;8.70;4.93;;;;;;;15.66;100.00;99956.81;6121540;28;20472;-93
2023/07/05 01:09:15;;;;;;;11.05;6.32;;;;;;;15.66;100.00;99946.38;6138194;28;20042;-92
2023/07/05 01:12:59;;;;;;;9.93;4.63;;;;;;;15.67;100.00;99941.97;6131668;28;20194;-92
2023/07/05 01:16:22;;;;;;;8.02;4.55;;;;;;;15.64;100.00;99926.66;6063830;29;20400;-91
2023/07/05 01:19:27;;;;;;;7.28;4.40;;;;;;;15.66;100.00;99920.28;6083245;29;20052;-91
2023/07/05 01:23:06;;;;;;;9.40;5.43;;;;;;;15.69;100.00;99911.31;6080105;29;20044;-92
2023/07/05 01:26:36;;;;;;;8.00;4.90;;;;;;;15.73;100.00;99902.22;6053778;29;20055;-91
2023/07/05 01:29:48;;;;;;;;;;;;;;;15.74;100.00;99895.19;6060087;29;20063;-91
2023/07/05 01:33:02;;;;;;;10.23;4.72;;;;;;;15.77;100.00;99889.63;6057387;29;20405;-91
2023/07/05 01:36:05;;;;;;;9.10;4.75;;;;;;;15.79;100.00;99878.03;6081850;29;20047;-91
2023/07/05 01:39:07;;;;;;;10.43;5.05;;;;;;;15.78;100.00;99870.38;6084990;29;20060;-91
2023/07/05 01:42:09;;;;;;;9.02;4.95;;;;;;;15.84;100.00;99896.59;6081453;29;20055;-91
2023/07/05 01:45:12;;;;;;;7.50;5.22;;;;;;;15.85;100.00;99882.56;6091455;29;20137;-91
2023/07/05 01:48:32;;;;;;;9.38;5.05;;;;;;;15.86;100.00;99852.06;6091683;29;20048;-91
2023/07/05 01:51:34;;;;;;;6.07;4.45;;;;;;;15.78;100.00;99834.66;6079347;29;20063;-92
2023/07/05 01:55:08;;;;;;;9.15;4.65;;;;;;;15.68;100.00;99854.91;6118874;29;20058;-93
2023/07/05 01:58:18;;;;;;;7.28;4.65;;;;;;;15.58;100.00;99867.34;6140313;28;20046;-92
2023/07/05 02:01:22;;;;;;;12.13;5.03;;;;;;;15.56;100.00;99853.66;6122796;28;20054;-93
2023/07/05 02:04:26;;;;;;;11.18;5.07;;;;;;;15.52;100.00;99851.38;6144160;28;20047;-92
2023/07/05 02:07:30;;;;;;;12.68;5.45;;;;;;;15.47;100.00;99858.09;6144496;28;20047;-92
2023/07/05 02:10:33;;;;;;;7.57;5.10;;;;;;;15.42;100.00;99850.75;6146080;28;20788;-92
2023/07/05 02:13:35;;;;;;;11.63;5.38;;;;;;;15.36;100.00;99835.00;6155329;28;20047;-91
2023/07/05 02:16:38;;;;;;;10.10;5.10;;;;;;;15.32;100.00;99825.88;6143755;28;20449;-90
2023/07/05 02:19:40;;;;;;;7.88;5.32;;;;;;;15.24;100.00;99817.09;6142271;28;20047;-90
2023/07/05 02:22:42;;;;;;;10.38;5.68;;;;;;;15.20;100.00;99812.38;6140411;28;20053;-90
2023/07/05 02:25:44;;;;;;;13.50;6.10;;;;;;;15.21;100.00;99806.22;6142192;28;20047;-90
2023/07/05 02:28:46;;;;;;;16.88;6.18;;;;;;;15.18;100.00;99804.75;6141361;28;20035;-89
2023/07/05 02:31:48;;;;;;;8.13;5.25;;;;;;;15.11;100.00;99806.41;6143031;28;20031;-89
2023/07/05 02:34:52;;;;;;;10.57;5.88;;;;;;;15.10;100.00;99798.75;6121728;28;20043;-89
2023/07/05 02:37:55;;;;;;;12.55;5.70;;;;;;;15.11;100.00;99797.78;6139691;28;20047;-89
2023/07/05 02:40:57;;;;;;;7.95;5.53;;;;;;;15.03;100.00;99804.63;6139714;28;20141;-89
2023/07/05 02:43:59;;;;;;;10.45;5.32;;;;;;;14.99;100.00;99785.09;6162066;28;20042;-88
2023/07/05 02:47:01;;;;;;;8.25;5.40;;;;;;;15.00;100.00;99773.69;6145003;28;20363;-88
2023/07/05 02:50:03;;;;;;;8.32;6.00;;;;;;;14.97;100.00;99773.22;6140474;28;20536;-88
2023/07/05 02:53:06;;;;;;;9.32;5.30;;;;;;;14.93;100.00;99762.31;6128597;28;20051;-88
2023/07/05 02:56:08;;;;;;;8.25;5.97;;;;;;;14.94;100.00;99761.34;6143454;28;20039;-88
2023/07/05 02:59:09;;;;;;;12.07;6.63;;;;;;;15.18;100.00;99754.38;6140679;28;20046;-88
2023/07/05 03:02:11;;;;;;;8.00;5.43;;;;;;;15.01;100.00;99743.25;6150731;28;20054;-87
2023/07/05 03:05:14;;;;;;;9.32;5.70;;;;;;;15.04;100.00;99743.69;6130058;28;20043;-87
2023/07/05 03:08:16;;;;;;;8.32;6.38;;;;;;;14.98;100.00;99751.38;6124029;28;20047;-87
2023/07/05 03:11:17;;;;;;;7.82;6.38;;;;;;;14.94;100.00;99743.09;6145448;28;20047;-87
2023/07/05 03:14:19;;;;;;;9.23;5.88;;;;;;;14.99;100.00;99732.16;6142410;28;20053;-87
2023/07/05 03:17:22;;;;;;;10.65;5.82;;;;;;;15.03;100.00;99726.44;6142513;28;20560;-88
2023/07/05 03:20:23;;;;;;;8.05;5.53;;;;;;;15.04;100.00;99727.25;6142650;28;20066;-87
2023/07/05 03:23:25;;;;;;;10.38;6.65;;;;;;;15.01;100.00;99725.00;6155785;28;20198;-88
2023/07/05 03:26:27;;;;;;;8.18;6.18;;;;;;;15.02;100.00;99730.03;6133168;28;20275;-87
2023/07/05 03:29:29;;;;;;;8.88;6.47;;;;;;;14.96;100.00;99729.91;6150156;28;20071;-88
2023/07/05 03:32:33;;;;;;;9.98;6.20;;;;;;;14.90;100.00;99720.94;6140738;28;20535;-88
2023/07/05 03:35:35;;;;;;;9.90;6.30;;;;;;;15.07;100.00;99727.72;6139127;28;20046;-87
2023/07/05 03:38:37;;;;;;;10.00;6.50;;;;;;;15.11;100.00;99716.97;6152072;28;20039;-87
2023/07/05 03:41:39;;;;;;;10.10;5.82;;;;;;;15.13;100.00;99709.75;6126793;28;20047;-87
2023/07/05 03:44:41;;;;;;;11.60;6.25;;;;;;;15.15;100.00;99692.16;6155677;28;20039;-87
2023/07/05 03:47:43;;;;;;;10.93;6.38;;;;;;;15.18;100.00;99700.47;6142210;28;20050;-87
2023/07/05 03:50:45;;;;;;;10.60;6.65;;;;;;;15.18;100.00;99707.47;6153987;28;20474;-87
2023/07/05 03:53:56;;;;;;;10.73;6.32;;;;;;;15.16;100.00;99699.03;6142526;28;20612;-87
2023/07/05 03:56:57;;;;;;;10.43;6.30;;;;;;;15.16;100.00;99694.63;6148061;28;20046;-87
2023/07/05 03:59:59;;;;;;;12.20;6.95;;;;;;;15.28;100.00;99700.25;6145516;28;20040;-87
2023/07/05 04:03:01;;;;;;;11.73;6.57;;;;;;;15.33;100.00;99695.34;6139731;28;20043;-87
2023/07/05 04:06:02;;;;;;;8.85;5.88;;;;;;;15.34;100.00;99685.72;6143001;28;20558;-87
2023/07/05 04:09:04;;;;;;;9.40;6.70;;;;;;;15.38;100.00;99679.16;6142540;28;20058;-88
2023/07/05 04:12:07;;;;;;;9.05;6.78;;;;;;;15.60;100.00;99686.19;6151361;28;20070;-88
2023/07/05 04:15:09;;;;;;;14.10;7.07;;;;;;;15.65;100.00;99673.44;6142221;28;20042;-87
2023/07/05 04:18:11;;;;;;;10.02;6.70;;;;;;;15.40;100.00;99675.41;6142318;28;20043;-88
2023/07/05 04:21:13;;;;;;;10.82;6.90;;;;;;;15.45;100.00;99673.09;6149955;28;20051;-87
2023/07/05 04:24:15;;;;;;;10.38;7.10;;;;;;;15.56;100.00;99671.88;6142251;28;20563;-87
2023/07/05 04:27:16;;;;;;;10.52;6.68;;;;;;;15.64;100.00;99657.94;6140842;28;20396;-88
2023/07/05 04:30:18;;;;;;;11.73;6.85;;;;;;;15.62;100.00;99650.28;6141989;28;20039;-87
2023/07/05 04:33:20;;;;;;;11.82;7.95;;;;;;;15.59;100.00;99647.22;6141933;28;20058;-87
2023/07/05 04:36:24;;;;;;;15.07;8.23;;;;;;;15.58;100.00;99654.25;6153787;28;20126;-88
2023/07/05 04:39:29;;;;;;;13.75;8.10;;;;;;;15.61;100.00;99650.47;6150304;28;20686;-87
2023/07/05 04:42:31;;;;;;;12.25;7.38;;;;;;;15.57;100.00;99660.44;6148244;28;20509;-87
2023/07/05 04:45:33;;;;;;;12.52;7.95;;;;;;;15.53;100.00;99643.53;6139905;28;20058;-87
2023/07/05 04:48:35;;;;;;;13.20;8.07;;;;;;;15.53;100.00;99653.97;6140212;28;20134;-87
2023/07/05 04:51:37;;;;;;;14.77;7.93;;;;;;;15.56;100.00;99643.16;6140549;28;20058;-87
2023/07/05 04:54:39;;;;;;;10.98;7.63;;;;;;;15.52;100.00;99647.09;6141624;28;20054;-86
2023/07/05 04:57:42;;;;;;;11.30;7.68;;;;;;;15.55;100.00;99641.53;6139751;28;20548;-87
2023/07/05 05:00:46;;;;;;;14.15;8.05;;;;;;;15.67;100.00;99639.31;6148914;28;20053;-87
2023/07/05 05:03:48;;;;;;;10.57;7.43;;;;;;;15.76;100.00;99640.09;6141172;28;20039;-87
2023/07/05 05:06:50;;;;;;;11.60;7.47;;;;;;;15.85;100.00;99639.84;6137064;28;20051;-87
2023/07/05 05:09:52;;;;;;;13.13;8.05;;;;;;;15.93;100.00;99639.78;6142004;28;20040;-86
2023/07/05 05:12:54;;;;;;;11.45;7.38;;;;;;;15.92;100.00;99638.16;6142105;28;20506;-86
2023/07/05 05:15:56;;;;;;;11.57;7.28;;;;;;;15.91;100.00;99644.34;6141141;28;20515;-87
2023/07/05 05:18:58;;;;;;;12.38;6.80;;;;;;;15.90;100.00;99655.00;6141145;28;20182;-87
2023/07/05 05:22:00;;;;;;;11.38;6.90;;;;;;;15.91;100.00;99675.69;6139755;28;20044;-87
2023/07/05 05:25:01;;;;;;;15.68;7.10;;;;;;;15.81;100.00;99682.13;6151400;28;20058;-87
2023/07/05 05:28:04;;;;;;;16.65;7.40;;;;;;;15.70;100.00;99689.41;6140011;28;20047;-89
2023/07/05 05:31:09;;;;;;;10.82;6.63;;;;;;;15.69;100.00;99690.38;6133620;28;20077;-89
2023/07/05 05:34:10;;;;;;;10.70;6.35;;;;;;;15.75;100.00;99690.66;6140831;28;20130;-89
2023/07/05 05:37:12;;;;;;;11.13;6.95;;;;;;;15.80;100.00;99690.94;6143435;28;20046;-88
2023/07/05 05:40:14;;;;;;;12.23;6.85;;;;;;;15.79;100.00;99681.50;6136976;28;20505;-89
2023/07/05 05:43:17;;;;;;;8.40;6.40;;;;;;;15.80;100.00;99680.50;6148248;28;20053;-89
2023/07/05 05:46:19;;;;;;;18.35;6.88;;;;;;;15.71;100.00;99683.19;6141392;28;20457;-89
2023/07/05 05:49:21;;;;;;;10.57;6.28;;;;;;;15.76;100.00;99685.28;6142210;28;20075;-89
2023/07/05 05:52:22;;;;;;;8.02;4.75;;;;;;;15.74;100.00;99653.31;6139768;28;20035;-90
2023/07/05 05:55:24;;;;;;;8.68;5.13;;;;;;;15.80;100.00;99620.47;6139289;28;20123;-89
2023/07/05 05:58:26;;;;;;;7.90;4.80;;;;;;;15.83;100.00;99618.34;6140475;28;20054;-89
2023/07/05 06:01:28;;;;;;;8.13;4.72;;;;;;;15.96;100.00;99581.19;6140494;28;20036;-89
2023/07/05 06:04:30;;;;;;;8.00;4.85;;;;;;;16.14;100.00;99615.56;6140860;28;20039;-89
2023/07/05 06:07:32;;;;;;;9.15;4.30;;;;;;;16.15;100.00;99622.44;6138745;28;20074;-90
2023/07/05 06:10:34;;;;;;;7.28;3.35;;;;;;;16.22;100.00;99634.75;6138688;28;20134;-90
2023/07/05 06:13:36;;;;;;;3.80;2.78;;;;;;;16.22;100.00;99637.38;6138644;28;20043;-89
2023/07/05 06:16:37;;;;;;;4.75;2.42;;;;;;;16.28;100.00;99647.91;6139761;28;20051;-88
2023/07/05 06:19:39;;;;;;;4.78;2.40;;;;;;;16.33;100.00;99665.66;6140784;28;20039;-88
2023/07/05 06:22:41;;;;;;;4.82;2.25;;;;;;;16.36;100.00;99655.66;6142377;28;20122;-88
2023/07/05 06:25:50;;;;;;;3.20;2.53;;;;;;;16.40;100.00;99642.22;6154052;28;20240;-87
2023/07/05 06:28:54;;;;;;;2.40;1.80;;;;;;;16.43;100.00;99645.31;6132803;28;20051;-87
2023/07/05 06:31:56;;;;;;;3.40;1.80;;;;;;;16.45;100.00;99652.97;6144730;28;20429;-87
2023/07/05 06:34:58;;;;;;;3.08;1.73;;;;;;;16.51;100.00;99660.06;6144371;28;20222;-87
2023/07/05 06:38:03;;;;;;;3.67;1.80;;;;;;;16.55;100.00;99667.38;6141605;28;20343;-87
2023/07/05 06:41:05;;;;;;;4.20;2.28;;;;;;;16.71;100.00;99668.97;6144265;28;20042;-87
2023/07/05 06:44:07;;;;;;;3.42;2.58;;;;;;;17.01;100.00;99677.59;6143204;28;20046;-87
2023/07/05 06:47:09;;;;;;;2.83;2.38;;;;;;;17.33;100.00;99679.94;6145716;28;20047;-88
2023/07/05 06:50:10;;;;;;;4.57;2.25;;;;;;;17.57;100.00;99663.06;6143677;28;20567;-88
2023/07/05 06:53:12;;;;;;;3.95;2.40;;;;;;;17.77;100.00;99663.25;6143791;28;20084;-88
2023/07/05 06:56:35;;;;;;;3.72;2.25;;;;;;;18.09;100.00;99659.28;6134901;28;20667;-88
2023/07/05 06:59:37;;;;;;;4.40;2.38;;;;;;;18.36;100.00;99646.31;6133085;28;20520;-88
2023/07/05 07:02:39;;;;;;;3.17;2.00;;;;;;;18.37;100.00;99647.97;6146100;28;20043;-88
2023/07/05 07:05:47;;;;;;;2.63;1.77;;;;;;;18.24;100.00;99654.75;6165276;28;20042;-88
2023/07/05 07:08:49;;;;;;;2.50;1.80;;;;;;;18.11;100.00;99654.66;6156162;28;20039;-89
2023/07/05 07:11:51;;;;;;;3.67;1.83;;;;;;;18.02;100.00;99661.84;6148725;28;20133;-89
2023/07/05 07:14:53;;;;;;;2.55;2.00;;;;;;;17.98;100.00;99680.75;6143691;28;20046;-88
2023/07/05 07:17:55;;;;;;;2.88;1.52;;;;;;;17.92;100.00;99677.09;6150951;28;20412;-89
2023/07/05 07:20:59;;;;;;;5.05;2.20;;;;;;;17.72;100.00;99697.84;6143522;28;20047;-89
2023/07/05 07:24:01;;;;;;;5.10;2.25;;;;;;;17.48;100.00;99709.47;6126297;29;20050;-90
2023/07/05 07:27:04;;;;;;;2.55;1.90;;;;;;;17.27;100.00;99701.63;6145169;28;20051;-89
2023/07/05 07:30:06;;;;;;;2.35;1.80;;;;;;;17.00;100.00;99709.97;6143763;28;20066;-90
2023/07/05 07:33:08;;;;;;;3.30;2.00;;;;;;;16.89;100.00;99701.78;6141617;28;20047;-90
2023/07/05 07:36:25;;;;;;;3.17;2.20;;;;;;;16.78;100.00;99703.88;6143271;28;20047;-90
2023/07/05 07:39:29;;;;;;;3.08;1.90;;;;;;;16.73;100.00;99702.75;6143936;28;20404;-90
2023/07/05 07:42:31;;;;;;;3.75;2.25;;;;;;;16.72;100.00;99701.97;6137087;28;20034;-93
2023/07/05 07:45:34;;;;;;;3.42;1.95;;;;;;;16.74;100.00;99696.53;6138554;28;20043;-91
2023/07/05 07:48:36;;;;;;;3.55;1.98;;;;;;;16.79;100.00;99712.50;6144637;28;20051;-90
2023/07/05 07:51:39;;;;;;;2.70;2.05;;;;;;;16.81;100.00;99714.97;6143165;28;20613;-89
2023/07/05 07:54:42;;;;;;;4.38;2.40;;;;;;;16.78;100.00;99718.75;6131039;28;20054;-91
2023/07/05 07:57:44;;;;;;;3.42;2.38;;;;;;;16.89;100.00;99714.84;6145869;28;20047;-92
2023/07/05 08:00:46;;;;;;;2.72;1.95;;;;;;;17.11;100.00;99723.56;6136469;28;20043;-92
2023/07/05 08:03:49;;;;;;;3.85;1.90;;;;;;;17.19;100.00;99726.06;6143342;28;20035;-91
2023/07/05 08:06:51;;;;;;;3.60;1.98;;;;;;;17.31;100.00;99732.44;6136320;28;20051;-93
2023/07/05 08:09:56;;;;;;;4.00;2.33;;;;;;;17.39;100.00;99724.50;6142437;28;20050;-92
2023/07/05 08:12:58;;;;;;;3.25;2.33;;;;;;;17.80;100.00;99721.28;6124702;28;20055;-92
2023/07/05 08:16:01;;;;;;;4.07;2.10;;;;;;;18.18;100.00;99728.84;6142902;28;20390;-91
2023/07/05 08:19:02;;;;;;;2.17;1.98;;;;;;;18.43;100.00;99744.13;6135495;28;20076;-90
2023/07/05 08:22:06;;;;;;;3.25;2.00;;;;;;;18.26;100.00;99741.81;6143046;28;20051;-92
2023/07/05 08:25:08;;;;;;;4.35;1.92;;;;;;;18.04;100.00;99741.03;6138936;28;20047;-91
2023/07/05 08:28:12;;;;;;;3.67;1.83;;;;;;;18.01;100.00;99740.59;6139038;28;20404;-93
2023/07/05 08:31:13;;;;;;;3.40;2.10;;;;;;;17.95;100.00;99742.16;6140591;28;20086;-91
2023/07/05 08:34:16;;;;;;;2.80;2.40;;;;;;;17.84;100.00;99745.31;6142054;28;20043;-93
2023/07/05 08:37:18;;;;;;;2.00;1.73;;;;;;;17.97;100.00;99741.97;6131909;28;20221;-93
2023/07/05 08:40:20;;;;;;;4.95;2.00;;;;;;;18.27;100.00;99738.19;6142647;28;20039;-93
2023/07/05 08:43:37;;;;;;;4.80;2.10;;;;;;;18.78;100.00;99749.41;6133103;28;20429;-92
2023/07/05 08:46:39;;;;;;;5.22;2.30;;;;;;;19.14;100.00;99757.06;6141156;28;20397;-93
2023/07/05 08:49:56;;;;;;;4.68;2.00;;;;;;;19.69;100.00;99751.78;6141817;28;20066;-89
2023/07/05 08:53:19;;;;;;;2.90;1.77;;;;;;;19.95;100.00;99777.25;6138504;28;20534;-90
2023/07/05 08:56:31;;;;;;;5.70;2.20;;;;;;;20.06;100.00;99775.88;6140896;28;20230;-91
2023/07/05 08:59:46;;;;;;;2.92;1.83;;;;;;;19.90;100.00;99798.06;6147507;28;20043;-91
2023/07/05 09:02:50;;;;;;;4.22;2.50;;;;;;;19.75;100.00;99792.97;6138694;28;20115;-92
2023/07/05 09:06:13;;;;;;;2.92;2.20;;;;;;;19.66;100.00;99799.41;6134463;28;20640;-92
2023/07/05 09:09:42;;;;;;;2.38;1.90;;;;;;;19.71;100.00;99791.78;6141348;28;20043;-91
2023/07/05 09:12:54;;;;;;;4.38;2.35;;;;;;;19.77;100.00;99796.22;6139473;28;20105;-92
2023/07/05 09:16:26;;;;;;;3.22;2.50;;;;;;;19.66;100.00;99809.91;6130015;28;20047;-92
2023/07/05 09:19:58;;;;;;;3.67;2.50;;;;;;;19.81;100.00;99815.84;6114706;28;20162;-92
2023/07/05 09:23:03;;;;;;;4.38;2.30;;;;;;;19.91;100.00;99808.38;6142654;28;20039;-91
2023/07/05 09:26:14;;;;;;;3.65;1.98;;;;;;;20.02;100.00;99804.34;6133336;28;20109;-92
2023/07/05 09:29:31;;;;;;;3.25;2.10;;;;;;;20.34;100.00;99815.88;6137950;28;20043;-91
2023/07/05 09:32:40;;;;;;;4.60;2.00;;;;;;;20.19;100.00;99818.72;6132007;28;21205;-92
2023/07/05 09:35:45;;;;;;;3.27;1.83;;;;;;;20.17;100.00;99799.72;6143146;28;20039;-92
2023/07/05 09:38:54;;;;;;;2.78;1.85;;;;;;;20.31;100.00;99815.50;6151124;28;20051;-91
2023/07/05 09:41:58;;;;;;;4.10;1.85;;;;;;;20.23;100.00;99811.25;6140576;28;20441;-92
2023/07/05 09:45:01;;;;;;;4.38;2.35;;;;;;;20.35;100.00;99835.91;6140457;28;20048;-92
2023/07/05 09:48:08;;;;;;;2.10;1.40;;;;;;;20.12;100.00;99831.06;6150121;28;20184;-92
2023/07/05 09:51:11;;;;;;;2.75;1.52;;;;;;;19.48;100.00;99829.66;6139401;28;20117;-91
2023/07/05 09:54:22;;;;;;;4.55;1.58;;;;;;;19.55;100.00;99834.91;6145165;28;20051;-91
2023/07/05 09:57:25;;;;;;;3.83;1.80;;;;;;;19.82;100.00;99843.72;6154956;28;20051;-91
2023/07/05 10:00:35;;;;;;;2.35;2.05;;;;;;;20.00;100.00;99846.59;6153814;28;20035;-91
2023/07/05 10:03:47;;;;;;;2.17;1.52;;;;;;;20.03;100.00;99860.34;6145915;28;20043;-91
2023/07/05 10:06:50;;;;;;;2.38;1.58;;;;;;;20.21;100.00;99866.63;6121807;28;20479;-92
2023/07/05 10:10:01;;;;;;;2.85;1.30;;;;;;;20.35;100.00;99869.28;6143547;28;20098;-92
2023/07/05 10:13:25;;;;;;;4.38;1.60;;;;;;;20.43;100.00;99869.88;6147789;28;20050;-92
2023/07/05 10:16:51;;;;;;;2.80;1.75;;;;;;;20.31;100.00;99868.06;6126723;28;20051;-93
2023/07/05 10:19:54;;;;;;;2.08;1.40;;;;;;;20.09;100.00;99876.09;6145076;28;20047;-94
2023/07/05 10:23:17;;;;;;;2.05;1.30;;;;;;;19.69;100.00;99896.19;6144479;28;20194;-90
2023/07/05 10:26:20;;;;;;;3.15;1.60;;;;;;;19.43;100.00;99879.31;6134764;28;20047;-94
2023/07/05 10:29:23;;;;;;;2.40;1.48;;;;;;;19.20;100.00;99891.88;6144065;28;20040;-94
2023/07/05 10:32:30;;;;;;;2.95;1.20;;;;;;;18.92;100.00;99885.66;6159498;28;20512;-94
2023/07/05 10:35:34;;;;;;;2.53;1.10;;;;;;;18.79;100.00;99898.69;6148745;28;20050;-92
2023/07/05 10:38:39;;;;;;;2.13;1.15;;;;;;;18.80;100.00;99878.50;6157880;28;20460;-93
2023/07/05 10:41:42;;;;;;;2.25;1.65;;;;;;;19.25;100.00;99886.88;6145528;28;20043;-91
2023/07/05 10:44:44;;;;;;;7.88;1.80;;;;;;;19.65;100.00;99903.66;6139560;28;20090;-91
2023/07/05 10:47:51;;;;;;;2.40;1.38;;;;;;;19.89;100.00;99897.06;6126305;28;20047;-92
2023/07/05 10:50:54;;;;;;;4.38;1.70;;;;;;;19.99;100.00;99905.38;6142612;28;20032;-92
2023/07/05 10:54:22;;;;;;;4.03;1.25;;;;;;;20.34;100.00;99907.88;6142108;28;20055;-93
2023/07/05 10:57:43;;;;;;;1.48;1.00;;;;;;;20.60;100.00;99920.28;6145859;28;20039;-92
2023/07/05 11:01:00;;;;;;;1.52;1.15;;;;;;;20.44;100.00;99889.09;6151701;28;20426;-91
2023/07/05 11:04:12;;;;;;;2.65;1.13;;;;;;;20.47;100.00;99907.13;6143689;28;20400;-92
2023/07/05 11:07:15;;;;;;;2.22;1.20;;;;;;;20.31;100.00;99889.09;6144843;28;20054;-93
2023/07/05 11:10:19;;;;;;;3.08;1.38;;;;;;;20.26;100.00;99896.75;6144813;28;20050;-92
2023/07/05 11:13:21;;;;;;;1.63;1.00;;;;;;;19.92;100.00;99894.03;6155597;28;20070;-90
2023/07/05 11:16:30;;;;;;;3.25;1.17;;;;;;;19.76;100.00;99883.91;6152495;28;20370;-92
2023/07/05 11:19:32;;;;;;;1.50;1.37;;;;;;;19.82;100.00;99880.47;6152281;28;20118;-91
2023/07/05 11:22:37;;;;;;;2.58;1.48;;;;;;;19.98;100.00;99874.88;6143232;28;20050;-90
2023/07/05 11:25:52;;;;;;;2.05;1.38;;;;;;;20.02;100.00;99888.41;6134540;28;20052;-92
2023/07/05 11:28:54;;;;;;;3.83;1.50;;;;;;;20.27;100.00;99898.38;6131296;28;20134;-91
2023/07/05 11:31:58;;;;;;;2.88;1.35;;;;;;;20.31;100.00;99903.03;6142238;28;20050;-93
2023/07/05 11:35:01;;;;;;;2.17;1.23;;;;;;;20.52;100.00;99912.56;6143742;28;20473;-92
2023/07/05 11:38:03;;;;;;;2.10;1.13;;;;;;;21.29;100.00;99921.66;6129487;28;20515;-93
2023/07/05 11:41:06;;;;;;;2.15;1.25;;;;;;;21.78;100.00;99930.00;6140588;28;20070;-93
2023/07/05 11:44:30;;;;;;;2.30;1.17;;;;;;;22.31;100.00;99931.59;6148713;28;20101;-92
2023/07/05 11:47:32;;;;;;;5.00;1.58;;;;;;;21.96;100.00;99931.16;6143375;28;20199;-91
2023/07/05 11:50:36;;;;;;;3.72;1.63;;;;;;;21.46;100.00;99942.28;6144733;28;20639;-89
2023/07/05 11:53:39;;;;;;;5.60;1.67;;;;;;;21.25;100.00;99923.06;6149056;28;20376;-91
2023/07/05 11:56:44;;;;;;;3.45;1.60;;;;;;;21.16;100.00;99918.22;6142722;28;20050;-92
2023/07/05 12:00:10;;;;;;;2.58;1.50;;;;;;;21.35;100.00;99908.69;6139786;28;20055;-93
2023/07/05 12:03:20;;;;;;;3.53;1.40;;;;;;;21.54;100.00;99926.28;6139041;28;20054;-91
2023/07/05 12:06:32;;;;;;;2.63;1.27;;;;;;;21.36;100.00;99916.34;6155027;28;20035;-92
2023/07/05 12:09:41;;;;;;;3.38;1.58;;;;;;;21.28;100.00;99916.56;6142028;28;20051;-92
2023/07/05 12:12:43;;;;;;;6.80;1.57;;;;;;;21.47;100.00;99920.22;6140000;28;20047;-91
2023/07/05 12:15:46;;;;;;;4.03;1.42;;;;;;;21.60;100.00;99922.78;6142157;28;20350;-91
2023/07/05 12:18:48;;;;;;;3.15;1.50;;;;;;;21.70;100.00;99923.16;6142763;28;20474;-93
2023/07/05 12:21:55;;;;;;;1.73;1.25;;;;;;;22.17;100.00;99916.84;6141663;28;20054;-92
2023/07/05 12:24:57;;;;;;;2.88;1.20;;;;;;;22.56;100.00;99921.09;6139951;28;20122;-92
2023/07/05 12:28:00;;;;;;;3.53;1.40;;;;;;;22.75;100.00;99922.75;6136746;28;20039;-91
2023/07/05 12:31:09;;;;;;;3.65;1.45;;;;;;;22.97;100.00;99914.44;6141551;28;20066;-91
2023/07/05 12:34:19;;;;;;;3.80;1.25;;;;;;;22.32;100.00;99925.31;6139007;28;20058;-90
2023/07/05 12:37:33;;;;;;;4.65;1.42;;;;;;;21.93;100.00;99921.84;6152728;28;20417;-92
2023/07/05 12:40:40;;;;;;;2.30;1.30;;;;;;;21.14;100.00;99925.50;6136276;28;20126;-92
2023/07/05 12:43:42;;;;;;;4.45;1.70;;;;;;;20.48;100.00;99932.38;6132372;28;20039;-92
2023/07/05 12:46:45;;;;;;;5.97;1.60;;;;;;;20.07;100.00;99930.66;6123269;28;20048;-91
2023/07/05 12:50:02;;;;;;;5.32;1.63;;;;;;;20.33;100.00;99914.16;6140866;28;20043;-92
2023/07/05 12:53:06;;;;;;;5.75;1.60;;;;;;;20.46;100.00;99930.97;6140775;28;20066;-91
2023/07/05 12:56:11;;;;;;;5.88;1.38;;;;;;;20.27;100.00;99938.59;6135422;28;20523;-91
2023/07/05 12:59:35;;;;;;;2.05;1.13;;;;;;;20.55;100.00;99946.38;6135529;28;20039;-92
2023/07/05 13:03:00;;;;;;;3.60;1.58;;;;;;;20.59;100.00;99946.78;6137725;28;20082;-92
2023/07/05 13:06:03;;;;;;;3.45;1.27;;;;;;;21.34;100.00;99949.16;6137076;28;20142;-92
2023/07/05 13:09:07;;;;;;;4.43;1.30;;;;;;;21.72;100.00;99939.56;6140224;28;20489;-91
2023/07/05 13:12:09;;;;;;;3.72;1.50;;;;;;;22.43;100.00;99950.97;6145163;28;20388;-92
2023/07/05 13:15:11;;;;;;;2.97;1.40;;;;;;;22.73;100.00;99945.09;6140167;28;20090;-92
2023/07/05 13:18:25;;;;;;;2.85;1.30;;;;;;;22.54;100.00;99960.06;6141608;28;20074;-91
2023/07/05 13:21:42;;;;;;;7.13;1.45;;;;;;;22.63;100.00;99935.00;6139973;28;20071;-92
2023/07/05 13:24:47;;;;;;;5.80;1.70;;;;;;;22.71;100.00;99960.34;6149345;28;20234;-93
2023/07/05 13:27:53;;;;;;;4.82;1.30;;;;;;;22.72;100.00;99944.28;6140645;28;20145;-91
2023/07/05 13:30:56;;;;;;;3.33;1.27;;;;;;;23.62;99.06;99953.59;6132284;28;20052;-93
2023/07/05 13:33:59;;;;;;;7.18;1.65;;;;;;;23.75;94.42;99950.84;6139062;28;20051;-91
2023/07/05 13:37:07;;;;;;;6.03;1.95;;;;;;;23.77;89.86;99956.69;6140755;28;20051;-91
2023/07/05 13:40:29;;;;;;;2.42;1.42;;;;;;;23.66;97.03;99970.66;6137840;29;20051;-91
2023/07/05 13:43:33;;;;;;;15.73;1.80;;;;;;;23.00;97.90;99957.09;6144302;28;20043;-91
2023/07/05 13:46:36;;;;;;;3.90;1.48;;;;;;;22.44;100.00;99952.63;6150005;28;20501;-92
2023/07/05 13:49:38;;;;;;;4.82;1.70;;;;;;;22.04;100.00;99954.66;6152104;28;20048;-92
2023/07/05 13:52:42;;;;;;;3.72;1.30;;;;;;;21.35;100.00;99971.88;6140978;28;20043;-93
2023/07/05 13:55:47;;;;;;;4.22;1.58;;;;;;;21.68;100.00;99998.94;6139022;28;20489;-91
2023/07/05 13:58:49;;;;;;;3.88;1.73;;;;;;;22.79;100.00;100002.31;6130245;28;20117;-92
2023/07/05 14:01:51;;;;;;;7.68;1.70;;;;;;;23.47;92.56;100000.72;6139705;28;20131;-90
2023/07/05 14:04:54;;;;;;;5.13;1.45;;;;;;;23.69;86.88;99977.31;6140730;28;20038;-92
2023/07/05 14:07:58;;;;;;;5.53;1.50;;;;;;;23.31;89.09;99986.25;6151489;28;20142;-91
2023/07/05 14:11:00;;;;;;;3.88;1.30;;;;;;;23.97;99.82;99993.47;6141206;28;20517;-89
2023/07/05 14:14:02;;;;;;;5.07;1.65;;;;;;;24.84;89.10;99998.38;6129048;28;20497;-93
2023/07/05 14:17:03;;;;;;;4.03;1.30;;;;;;;24.55;88.60;100000.06;6133857;28;20052;-92
2023/07/05 14:20:08;;;;;;;6.30;1.55;;;;;;;24.23;88.19;100010.06;6148683;28;20118;-92
2023/07/05 14:23:17;;;;;;;5.50;1.40;;;;;;;24.12;89.74;100014.25;6140597;28;20071;-92